sensor_id;sensor_type;location;lat;lon;timestamp;P1;durP1;ratioP1;P2;durP2;ratioP2
77168;SDS011;66281;45.114;20.730;2023-11-22T00:03:23;27.90;;;17.60;;
77168;SDS011;66281;45.114;20.730;2023-11-22T00:13:27;26.80;;;17.23;;
77168;SDS011;66281;45.114;20.730;2023-11-22T00:23:28;31.97;;;18.87;;
77168;SDS011;66281;45.114;20.730;2023-11-22T00:33:31;26.93;;;15.60;;
77168;SDS011;66281;45.114;20.730;2023-11-22T00:43:32;28.90;;;17.17;;
77168;SDS011;66281;45.114;20.730;2023-11-22T00:53:34;25.47;;;15.00;;
77168;SDS011;66281;45.114;20.730;2023-11-22T01:03:38;28.00;;;17.37;;
77168;SDS011;66281;45.114;20.730;2023-11-22T01:13:39;33.85;;;19.25;;
77168;SDS011;66281;45.114;20.730;2023-11-22T01:23:41;39.00;;;19.77;;
77168;SDS011;66281;45.114;20.730;2023-11-22T01:33:42;27.87;;;17.37;;
77168;SDS011;66281;45.114;20.730;2023-11-22T01:43:43;25.30;;;16.48;;
77168;SDS011;66281;45.114;20.730;2023-11-22T01:53:45;30.27;;;18.43;;
77168;SDS011;66281;45.114;20.730;2023-11-22T02:03:48;31.37;;;17.27;;
77168;SDS011;66281;45.114;20.730;2023-11-22T02:13:49;29.10;;;17.47;;
77168;SDS011;66281;45.114;20.730;2023-11-22T02:23:51;28.40;;;15.85;;
77168;SDS011;66281;45.114;20.730;2023-11-22T02:33:53;34.53;;;19.10;;
77168;SDS011;66281;45.114;20.730;2023-11-22T02:43:56;32.17;;;16.80;;
77168;SDS011;66281;45.114;20.730;2023-11-22T02:53:57;31.65;;;18.30;;
77168;SDS011;66281;45.114;20.730;2023-11-22T03:03:59;26.93;;;15.47;;
77168;SDS011;66281;45.114;20.730;2023-11-22T03:14:00;32.10;;;17.27;;
77168;SDS011;66281;45.114;20.730;2023-11-22T03:24:04;29.27;;;16.23;;
77168;SDS011;66281;45.114;20.730;2023-11-22T03:34:06;28.20;;;16.67;;
77168;SDS011;66281;45.114;20.730;2023-11-22T03:44:08;28.20;;;16.53;;
77168;SDS011;66281;45.114;20.730;2023-11-22T03:54:09;24.20;;;15.73;;
77168;SDS011;66281;45.114;20.730;2023-11-22T04:04:11;25.65;;;15.10;;
77168;SDS011;66281;45.114;20.730;2023-11-22T04:14:13;27.77;;;16.80;;
77168;SDS011;66281;45.114;20.730;2023-11-22T04:24:14;29.70;;;18.13;;
77168;SDS011;66281;45.114;20.730;2023-11-22T04:34:15;31.38;;;19.42;;
77168;SDS011;66281;45.114;20.730;2023-11-22T04:44:16;33.90;;;19.27;;
77168;SDS011;66281;45.114;20.730;2023-11-22T04:54:18;50.03;;;25.57;;
77168;SDS011;66281;45.114;20.730;2023-11-22T05:04:19;42.20;;;22.50;;
77168;SDS011;66281;45.114;20.730;2023-11-22T05:14:20;38.73;;;21.80;;
77168;SDS011;66281;45.114;20.730;2023-11-22T05:24:22;44.20;;;23.20;;
77168;SDS011;66281;45.114;20.730;2023-11-22T05:34:23;41.07;;;22.87;;
77168;SDS011;66281;45.114;20.730;2023-11-22T05:44:24;51.33;;;25.52;;
77168;SDS011;66281;45.114;20.730;2023-11-22T05:54:26;47.47;;;23.97;;
77168;SDS011;66281;45.114;20.730;2023-11-22T06:04:27;39.63;;;23.20;;
77168;SDS011;66281;45.114;20.730;2023-11-22T06:14:29;47.65;;;23.75;;
77168;SDS011;66281;45.114;20.730;2023-11-22T06:24:30;50.20;;;24.90;;
77168;SDS011;66281;45.114;20.730;2023-11-22T06:34:32;53.13;;;26.80;;
77168;SDS011;66281;45.114;20.730;2023-11-22T06:44:33;54.15;;;26.02;;
77168;SDS011;66281;45.114;20.730;2023-11-22T06:54:35;53.35;;;26.67;;
77168;SDS011;66281;45.114;20.730;2023-11-22T07:04:37;55.93;;;29.90;;
77168;SDS011;66281;45.114;20.730;2023-11-22T07:14:40;64.67;;;32.57;;
77168;SDS011;66281;45.114;20.730;2023-11-22T07:24:44;75.70;;;39.92;;
77168;SDS011;66281;45.114;20.730;2023-11-22T07:34:46;54.23;;;31.03;;
77168;SDS011;66281;45.114;20.730;2023-11-22T07:44:48;70.63;;;35.83;;
77168;SDS011;66281;45.114;20.730;2023-11-22T07:54:50;91.18;;;37.35;;
77168;SDS011;66281;45.114;20.730;2023-11-22T08:04:52;83.03;;;33.53;;
77168;SDS011;66281;45.114;20.730;2023-11-22T08:14:53;71.93;;;32.73;;
77168;SDS011;66281;45.114;20.730;2023-11-22T08:24:56;78.55;;;35.05;;
77168;SDS011;66281;45.114;20.730;2023-11-22T08:34:58;56.87;;;24.40;;
77168;SDS011;66281;45.114;20.730;2023-11-22T08:44:59;77.80;;;31.13;;
77168;SDS011;66281;45.114;20.730;2023-11-22T08:55:01;65.27;;;27.50;;
77168;SDS011;66281;45.114;20.730;2023-11-22T09:05:05;62.97;;;27.90;;
77168;SDS011;66281;45.114;20.730;2023-11-22T09:15:09;59.77;;;26.23;;
77168;SDS011;66281;45.114;20.730;2023-11-22T09:25:17;62.57;;;27.50;;
77168;SDS011;66281;45.114;20.730;2023-11-22T09:35:20;63.30;;;27.90;;
77168;SDS011;66281;45.114;20.730;2023-11-22T09:45:22;75.67;;;31.47;;
77168;SDS011;66281;45.114;20.730;2023-11-22T09:55:24;70.00;;;32.03;;
77168;SDS011;66281;45.114;20.730;2023-11-22T10:05:29;84.60;;;37.25;;
77168;SDS011;66281;45.114;20.730;2023-11-22T10:15:31;66.50;;;31.07;;
77168;SDS011;66281;45.114;20.730;2023-11-22T10:25:32;62.20;;;29.90;;
77168;SDS011;66281;45.114;20.730;2023-11-22T10:35:34;58.10;;;27.17;;
77168;SDS011;66281;45.114;20.730;2023-11-22T10:45:37;61.40;;;29.58;;
77168;SDS011;66281;45.114;20.730;2023-11-22T10:55:41;61.80;;;29.20;;
77168;SDS011;66281;45.114;20.730;2023-11-22T11:05:48;70.77;;;31.27;;
77168;SDS011;66281;45.114;20.730;2023-11-22T11:16:00;71.82;;;33.88;;
77168;SDS011;66281;45.114;20.730;2023-11-22T11:26:14;55.30;;;27.63;;
77168;SDS011;66281;45.114;20.730;2023-11-22T11:36:21;64.07;;;30.53;;
77168;SDS011;66281;45.114;20.730;2023-11-22T11:46:25;65.38;;;32.00;;
77168;SDS011;66281;45.114;20.730;2023-11-22T11:56:27;62.47;;;34.47;;
77168;SDS011;66281;45.114;20.730;2023-11-22T12:06:30;51.63;;;26.33;;
77168;SDS011;66281;45.114;20.730;2023-11-22T12:16:37;51.07;;;27.30;;
77168;SDS011;66281;45.114;20.730;2023-11-22T12:26:40;51.10;;;27.33;;
77168;SDS011;66281;45.114;20.730;2023-11-22T12:36:42;59.33;;;31.13;;
77168;SDS011;66281;45.114;20.730;2023-11-22T12:46:53;72.07;;;35.60;;
77168;SDS011;66281;45.114;20.730;2023-11-22T12:56:57;60.42;;;31.95;;
77168;SDS011;66281;45.114;20.730;2023-11-22T13:06:59;70.77;;;33.40;;
77168;SDS011;66281;45.114;20.730;2023-11-22T13:17:01;54.00;;;28.70;;
77168;SDS011;66281;45.114;20.730;2023-11-22T13:27:04;57.60;;;31.60;;
77168;SDS011;66281;45.114;20.730;2023-11-22T13:37:06;56.05;;;27.80;;
77168;SDS011;66281;45.114;20.730;2023-11-22T13:47:08;105.90;;;52.57;;
77168;SDS011;66281;45.114;20.730;2023-11-22T13:57:10;71.50;;;40.53;;
77168;SDS011;66281;45.114;20.730;2023-11-22T14:07:11;70.13;;;39.38;;
77168;SDS011;66281;45.114;20.730;2023-11-22T14:17:13;62.20;;;35.57;;
77168;SDS011;66281;45.114;20.730;2023-11-22T14:27:15;64.80;;;34.53;;
77168;SDS011;66281;45.114;20.730;2023-11-22T14:37:16;51.17;;;28.63;;
77168;SDS011;66281;45.114;20.730;2023-11-22T14:47:18;36.43;;;21.30;;
77168;SDS011;66281;45.114;20.730;2023-11-22T14:57:25;53.80;;;28.77;;
77168;SDS011;66281;45.114;20.730;2023-11-22T15:07:27;61.88;;;32.42;;
77168;SDS011;66281;45.114;20.730;2023-11-22T15:17:28;52.33;;;28.13;;
77168;SDS011;66281;45.114;20.730;2023-11-22T15:27:30;58.40;;;33.20;;
77168;SDS011;66281;45.114;20.730;2023-11-22T15:37:31;65.80;;;36.60;;
77168;SDS011;66281;45.114;20.730;2023-11-22T15:47:33;63.55;;;31.38;;
77168;SDS011;66281;45.114;20.730;2023-11-22T15:57:36;48.13;;;25.40;;
77168;SDS011;66281;45.114;20.730;2023-11-22T16:07:38;36.00;;;19.83;;
77168;SDS011;66281;45.114;20.730;2023-11-22T16:17:39;41.03;;;18.92;;
77168;SDS011;66281;45.114;20.730;2023-11-22T16:27:42;30.17;;;15.57;;
77168;SDS011;66281;45.114;20.730;2023-11-22T16:37:43;43.37;;;18.13;;
77168;SDS011;66281;45.114;20.730;2023-11-22T16:47:45;29.17;;;14.80;;
77168;SDS011;66281;45.114;20.730;2023-11-22T16:57:47;36.90;;;19.42;;
77168;SDS011;66281;45.114;20.730;2023-11-22T17:07:50;28.30;;;15.70;;
77168;SDS011;66281;45.114;20.730;2023-11-22T17:17:52;38.07;;;17.63;;
77168;SDS011;66281;45.114;20.730;2023-11-22T17:27:53;36.65;;;16.48;;
77168;SDS011;66281;45.114;20.730;2023-11-22T17:37:55;40.23;;;20.27;;
77168;SDS011;66281;45.114;20.730;2023-11-22T17:48:01;34.63;;;17.33;;
77168;SDS011;66281;45.114;20.730;2023-11-22T17:58:03;48.17;;;26.10;;
77168;SDS011;66281;45.114;20.730;2023-11-22T18:08:06;38.93;;;19.17;;
77168;SDS011;66281;45.114;20.730;2023-11-22T18:18:07;46.20;;;22.73;;
77168;SDS011;66281;45.114;20.730;2023-11-22T18:28:09;58.55;;;28.33;;
77168;SDS011;66281;45.114;20.730;2023-11-22T18:38:13;28.90;;;16.33;;
77168;SDS011;66281;45.114;20.730;2023-11-22T18:48:15;25.40;;;14.33;;
77168;SDS011;66281;45.114;20.730;2023-11-22T18:58:17;40.83;;;19.07;;
77168;SDS011;66281;45.114;20.730;2023-11-22T19:08:18;30.40;;;15.88;;
77168;SDS011;66281;45.114;20.730;2023-11-22T19:18:20;30.40;;;14.73;;
77168;SDS011;66281;45.114;20.730;2023-11-22T19:28:21;29.97;;;15.80;;
77168;SDS011;66281;45.114;20.730;2023-11-22T19:38:23;34.20;;;16.38;;
77168;SDS011;66281;45.114;20.730;2023-11-22T19:48:29;36.43;;;19.20;;
77168;SDS011;66281;45.114;20.730;2023-11-22T19:58:31;28.33;;;16.17;;
77168;SDS011;66281;45.114;20.730;2023-11-22T20:08:33;31.52;;;16.23;;
77168;SDS011;66281;45.114;20.730;2023-11-22T20:18:34;22.38;;;11.55;;
77168;SDS011;66281;45.114;20.730;2023-11-22T20:28:35;20.60;;;13.57;;
77168;SDS011;66281;45.114;20.730;2023-11-22T20:38:37;30.30;;;15.30;;
77168;SDS011;66281;45.114;20.730;2023-11-22T20:48:40;16.38;;;10.48;;
77168;SDS011;66281;45.114;20.730;2023-11-22T20:58:44;19.87;;;10.57;;
77168;SDS011;66281;45.114;20.730;2023-11-22T21:08:45;23.60;;;12.37;;
77168;SDS011;66281;45.114;20.730;2023-11-22T21:18:47;17.30;;;10.70;;
77168;SDS011;66281;45.114;20.730;2023-11-22T21:28:51;16.17;;;9.73;;
77168;SDS011;66281;45.114;20.730;2023-11-22T21:38:53;18.53;;;9.53;;
77168;SDS011;66281;45.114;20.730;2023-11-22T21:48:54;31.98;;;14.80;;
77168;SDS011;66281;45.114;20.730;2023-11-22T21:58:56;21.52;;;11.60;;
77168;SDS011;66281;45.114;20.730;2023-11-22T22:08:59;20.53;;;11.57;;
77168;SDS011;66281;45.114;20.730;2023-11-22T22:19:00;20.93;;;11.00;;
77168;SDS011;66281;45.114;20.730;2023-11-22T22:29:01;27.40;;;12.07;;
77168;SDS011;66281;45.114;20.730;2023-11-22T22:39:05;20.17;;;10.23;;
77168;SDS011;66281;45.114;20.730;2023-11-22T22:49:06;18.30;;;10.33;;
77168;SDS011;66281;45.114;20.730;2023-11-22T22:59:08;19.00;;;10.07;;
77168;SDS011;66281;45.114;20.730;2023-11-22T23:09:09;25.33;;;13.90;;
77168;SDS011;66281;45.114;20.730;2023-11-22T23:19:10;28.43;;;14.73;;
77168;SDS011;66281;45.114;20.730;2023-11-22T23:29:12;16.52;;;9.52;;
77168;SDS011;66281;45.114;20.730;2023-11-22T23:39:15;23.70;;;13.57;;
77168;SDS011;66281;45.114;20.730;2023-11-22T23:49:17;23.83;;;12.40;;
77168;SDS011;66281;45.114;20.730;2023-11-22T23:59:18;25.20;;;10.77;;
